Elco, Illinois
Current Conditions -  °F | °C
As of 5:15 AM on Monday 22 Dec 2014 (Local Time) from KCIR Reporting Station
Overcast Overcast  
Wind Chill: 43°   Ceiling: 9000
Heat Index: 47°   Visibility: 10mi
Dew Point: 41°   Wind: 8mph
Humidity: 81%   Direction: 140°SE
Pressure: 29.85"   Gusts: NA
Location:  37.2537°N, 89.2938°W
Report Text: KCIR 221115Z AUTO 14007KT 10SM SCT014 OVC090 08/05 A2985 RMK AO2 T00810050
Loading
Personal Weather Stations






























Interactive Weather Map New forecast layout! Learn more

10-Day Weather Forecast

Advertisements
Track Severe Weather on mobile